sensor_id;sensor_type;location;lat;lon;timestamp;P1;durP1;ratioP1;P2;durP2;ratioP2
3407;SDS011;1717;50.240;8.406;2022-12-07T00:01:05;37.13;;;21.83;;
3407;SDS011;1717;50.240;8.406;2022-12-07T00:03:32;36.73;;;21.47;;
3407;SDS011;1717;50.240;8.406;2022-12-07T00:06:01;39.93;;;22.07;;
3407;SDS011;1717;50.240;8.406;2022-12-07T00:08:29;36.47;;;20.00;;
3407;SDS011;1717;50.240;8.406;2022-12-07T00:11:00;33.57;;;22.23;;
3407;SDS011;1717;50.240;8.406;2022-12-07T00:13:28;37.67;;;20.03;;
3407;SDS011;1717;50.240;8.406;2022-12-07T00:15:55;35.37;;;23.00;;
3407;SDS011;1717;50.240;8.406;2022-12-07T00:18:21;37.40;;;20.57;;
3407;SDS011;1717;50.240;8.406;2022-12-07T00:20:48;31.83;;;20.47;;
3407;SDS011;1717;50.240;8.406;2022-12-07T00:23:17;36.47;;;21.00;;
3407;SDS011;1717;50.240;8.406;2022-12-07T00:25:44;35.40;;;19.97;;
3407;SDS011;1717;50.240;8.406;2022-12-07T00:28:13;32.80;;;20.43;;
3407;SDS011;1717;50.240;8.406;2022-12-07T00:30:39;34.53;;;20.37;;
3407;SDS011;1717;50.240;8.406;2022-12-07T00:33:06;32.37;;;20.23;;
3407;SDS011;1717;50.240;8.406;2022-12-07T00:35:33;35.03;;;20.93;;
3407;SDS011;1717;50.240;8.406;2022-12-07T00:37:59;31.27;;;18.80;;
3407;SDS011;1717;50.240;8.406;2022-12-07T00:40:28;37.53;;;19.60;;
3407;SDS011;1717;50.240;8.406;2022-12-07T00:42:54;33.13;;;18.40;;
3407;SDS011;1717;50.240;8.406;2022-12-07T00:45:21;28.70;;;18.40;;
3407;SDS011;1717;50.240;8.406;2022-12-07T00:47:48;28.17;;;17.27;;
3407;SDS011;1717;50.240;8.406;2022-12-07T00:50:15;29.33;;;17.37;;
3407;SDS011;1717;50.240;8.406;2022-12-07T00:52:41;30.90;;;19.40;;
3407;SDS011;1717;50.240;8.406;2022-12-07T00:55:08;33.07;;;18.20;;
3407;SDS011;1717;50.240;8.406;2022-12-07T00:57:36;29.93;;;16.97;;
3407;SDS011;1717;50.240;8.406;2022-12-07T01:00:04;29.37;;;17.70;;
3407;SDS011;1717;50.240;8.406;2022-12-07T01:02:31;29.03;;;17.80;;
3407;SDS011;1717;50.240;8.406;2022-12-07T01:04:58;28.53;;;16.27;;
3407;SDS011;1717;50.240;8.406;2022-12-07T01:07:25;27.47;;;15.60;;
3407;SDS011;1717;50.240;8.406;2022-12-07T01:09:52;28.63;;;15.80;;
3407;SDS011;1717;50.240;8.406;2022-12-07T01:12:18;28.87;;;15.80;;
3407;SDS011;1717;50.240;8.406;2022-12-07T01:14:47;26.20;;;16.50;;
3407;SDS011;1717;50.240;8.406;2022-12-07T01:17:13;26.67;;;15.43;;
3407;SDS011;1717;50.240;8.406;2022-12-07T01:19:40;26.53;;;16.60;;
3407;SDS011;1717;50.240;8.406;2022-12-07T01:22:07;28.13;;;16.03;;
3407;SDS011;1717;50.240;8.406;2022-12-07T01:24:34;26.23;;;14.80;;
3407;SDS011;1717;50.240;8.406;2022-12-07T01:27:01;24.57;;;15.90;;
3407;SDS011;1717;50.240;8.406;2022-12-07T01:29:28;21.80;;;15.00;;
3407;SDS011;1717;50.240;8.406;2022-12-07T01:31:56;24.60;;;15.13;;
3407;SDS011;1717;50.240;8.406;2022-12-07T01:34:22;22.30;;;14.40;;
3407;SDS011;1717;50.240;8.406;2022-12-07T01:36:49;24.93;;;14.67;;
3407;SDS011;1717;50.240;8.406;2022-12-07T01:39:16;29.53;;;16.00;;
3407;SDS011;1717;50.240;8.406;2022-12-07T01:41:43;21.97;;;13.30;;
3407;SDS011;1717;50.240;8.406;2022-12-07T01:44:11;21.53;;;14.70;;
3407;SDS011;1717;50.240;8.406;2022-12-07T01:46:44;22.63;;;14.90;;
3407;SDS011;1717;50.240;8.406;2022-12-07T01:49:14;26.00;;;14.27;;
3407;SDS011;1717;50.240;8.406;2022-12-07T01:51:50;21.40;;;13.07;;
3407;SDS011;1717;50.240;8.406;2022-12-07T01:54:20;23.93;;;14.00;;
3407;SDS011;1717;50.240;8.406;2022-12-07T01:56:49;20.30;;;12.50;;
3407;SDS011;1717;50.240;8.406;2022-12-07T01:59:19;23.00;;;13.10;;
3407;SDS011;1717;50.240;8.406;2022-12-07T02:01:50;21.17;;;13.47;;
3407;SDS011;1717;50.240;8.406;2022-12-07T02:04:19;23.63;;;14.40;;
3407;SDS011;1717;50.240;8.406;2022-12-07T02:06:47;23.80;;;13.00;;
3407;SDS011;1717;50.240;8.406;2022-12-07T02:09:14;19.80;;;13.20;;
3407;SDS011;1717;50.240;8.406;2022-12-07T02:11:41;20.33;;;11.80;;
3407;SDS011;1717;50.240;8.406;2022-12-07T02:14:08;19.87;;;12.90;;
3407;SDS011;1717;50.240;8.406;2022-12-07T02:16:37;20.67;;;12.57;;
3407;SDS011;1717;50.240;8.406;2022-12-07T02:19:21;21.67;;;11.90;;
3407;SDS011;1717;50.240;8.406;2022-12-07T02:22:06;19.00;;;11.13;;
3407;SDS011;1717;50.240;8.406;2022-12-07T02:24:52;19.10;;;11.77;;
3407;SDS011;1717;50.240;8.406;2022-12-07T02:27:34;19.90;;;11.10;;
3407;SDS011;1717;50.240;8.406;2022-12-07T02:30:09;20.33;;;11.10;;
3407;SDS011;1717;50.240;8.406;2022-12-07T02:32:40;17.30;;;9.57;;
3407;SDS011;1717;50.240;8.406;2022-12-07T02:35:15;16.47;;;9.70;;
3407;SDS011;1717;50.240;8.406;2022-12-07T02:37:48;18.37;;;10.67;;
3407;SDS011;1717;50.240;8.406;2022-12-07T02:40:22;16.00;;;10.10;;
3407;SDS011;1717;50.240;8.406;2022-12-07T02:42:55;15.57;;;8.97;;
3407;SDS011;1717;50.240;8.406;2022-12-07T02:45:27;20.17;;;11.43;;
3407;SDS011;1717;50.240;8.406;2022-12-07T02:47:57;16.07;;;11.13;;
3407;SDS011;1717;50.240;8.406;2022-12-07T02:50:26;18.10;;;11.50;;
3407;SDS011;1717;50.240;8.406;2022-12-07T02:52:53;16.80;;;10.00;;
3407;SDS011;1717;50.240;8.406;2022-12-07T02:55:22;14.07;;;10.27;;
3407;SDS011;1717;50.240;8.406;2022-12-07T02:57:59;17.37;;;10.53;;
3407;SDS011;1717;50.240;8.406;2022-12-07T03:00:51;16.60;;;9.53;;
3407;SDS011;1717;50.240;8.406;2022-12-07T03:03:24;15.10;;;9.80;;
3407;SDS011;1717;50.240;8.406;2022-12-07T03:05:56;16.40;;;10.37;;
3407;SDS011;1717;50.240;8.406;2022-12-07T03:08:35;15.50;;;9.93;;
3407;SDS011;1717;50.240;8.406;2022-12-07T03:11:08;14.80;;;10.23;;
3407;SDS011;1717;50.240;8.406;2022-12-07T03:13:37;17.77;;;10.53;;
3407;SDS011;1717;50.240;8.406;2022-12-07T03:16:11;15.87;;;9.73;;
3407;SDS011;1717;50.240;8.406;2022-12-07T03:18:43;15.53;;;9.60;;
3407;SDS011;1717;50.240;8.406;2022-12-07T03:21:19;16.30;;;10.50;;
3407;SDS011;1717;50.240;8.406;2022-12-07T03:23:51;14.80;;;9.10;;
3407;SDS011;1717;50.240;8.406;2022-12-07T03:26:22;17.27;;;10.83;;
3407;SDS011;1717;50.240;8.406;2022-12-07T03:28:55;18.07;;;11.43;;
3407;SDS011;1717;50.240;8.406;2022-12-07T03:31:29;14.87;;;9.37;;
3407;SDS011;1717;50.240;8.406;2022-12-07T03:33:59;13.80;;;9.10;;
3407;SDS011;1717;50.240;8.406;2022-12-07T03:36:34;16.87;;;9.47;;
3407;SDS011;1717;50.240;8.406;2022-12-07T03:39:07;18.50;;;9.30;;
3407;SDS011;1717;50.240;8.406;2022-12-07T03:41:43;18.70;;;10.60;;
3407;SDS011;1717;50.240;8.406;2022-12-07T03:44:10;16.37;;;9.90;;
3407;SDS011;1717;50.240;8.406;2022-12-07T03:46:41;13.77;;;9.90;;
3407;SDS011;1717;50.240;8.406;2022-12-07T03:49:11;16.40;;;10.23;;
3407;SDS011;1717;50.240;8.406;2022-12-07T03:51:46;17.83;;;11.27;;
3407;SDS011;1717;50.240;8.406;2022-12-07T03:54:19;14.97;;;9.63;;
3407;SDS011;1717;50.240;8.406;2022-12-07T03:56:50;17.47;;;10.53;;
3407;SDS011;1717;50.240;8.406;2022-12-07T03:59:19;15.63;;;11.23;;
3407;SDS011;1717;50.240;8.406;2022-12-07T04:01:52;15.23;;;10.90;;
3407;SDS011;1717;50.240;8.406;2022-12-07T04:04:20;16.40;;;10.63;;
3407;SDS011;1717;50.240;8.406;2022-12-07T04:06:48;17.23;;;10.60;;
3407;SDS011;1717;50.240;8.406;2022-12-07T04:09:15;18.70;;;10.43;;
3407;SDS011;1717;50.240;8.406;2022-12-07T04:11:42;19.60;;;12.53;;
3407;SDS011;1717;50.240;8.406;2022-12-07T04:14:09;17.63;;;10.40;;
3407;SDS011;1717;50.240;8.406;2022-12-07T04:16:45;19.63;;;12.00;;
3407;SDS011;1717;50.240;8.406;2022-12-07T04:19:13;18.70;;;11.23;;
3407;SDS011;1717;50.240;8.406;2022-12-07T04:21:40;18.20;;;12.27;;
3407;SDS011;1717;50.240;8.406;2022-12-07T04:24:07;18.90;;;11.60;;
3407;SDS011;1717;50.240;8.406;2022-12-07T04:26:35;18.53;;;12.00;;
3407;SDS011;1717;50.240;8.406;2022-12-07T04:29:02;18.00;;;10.67;;
3407;SDS011;1717;50.240;8.406;2022-12-07T04:31:29;20.20;;;12.43;;
3407;SDS011;1717;50.240;8.406;2022-12-07T04:33:56;19.87;;;11.30;;
3407;SDS011;1717;50.240;8.406;2022-12-07T04:36:24;20.67;;;13.07;;
3407;SDS011;1717;50.240;8.406;2022-12-07T04:38:52;17.47;;;11.20;;
3407;SDS011;1717;50.240;8.406;2022-12-07T04:41:20;19.67;;;12.70;;
3407;SDS011;1717;50.240;8.406;2022-12-07T04:43:52;18.40;;;13.00;;
3407;SDS011;1717;50.240;8.406;2022-12-07T04:46:19;18.07;;;11.47;;
3407;SDS011;1717;50.240;8.406;2022-12-07T04:48:46;21.40;;;13.40;;
3407;SDS011;1717;50.240;8.406;2022-12-07T04:51:18;17.70;;;11.40;;
3407;SDS011;1717;50.240;8.406;2022-12-07T04:53:47;19.60;;;12.33;;
3407;SDS011;1717;50.240;8.406;2022-12-07T04:56:14;18.80;;;12.03;;
3407;SDS011;1717;50.240;8.406;2022-12-07T04:58:42;20.40;;;13.23;;
3407;SDS011;1717;50.240;8.406;2022-12-07T05:01:09;20.77;;;12.53;;
3407;SDS011;1717;50.240;8.406;2022-12-07T05:03:36;19.77;;;12.50;;
3407;SDS011;1717;50.240;8.406;2022-12-07T05:06:03;21.97;;;13.00;;
3407;SDS011;1717;50.240;8.406;2022-12-07T05:08:31;20.93;;;12.93;;
3407;SDS011;1717;50.240;8.406;2022-12-07T05:11:00;20.07;;;13.07;;
3407;SDS011;1717;50.240;8.406;2022-12-07T05:13:27;23.40;;;13.67;;
3407;SDS011;1717;50.240;8.406;2022-12-07T05:15:54;22.07;;;13.13;;
3407;SDS011;1717;50.240;8.406;2022-12-07T05:18:21;20.50;;;12.27;;
3407;SDS011;1717;50.240;8.406;2022-12-07T05:20:48;23.20;;;13.70;;
3407;SDS011;1717;50.240;8.406;2022-12-07T05:23:16;22.87;;;14.33;;
3407;SDS011;1717;50.240;8.406;2022-12-07T05:25:43;21.40;;;12.33;;
3407;SDS011;1717;50.240;8.406;2022-12-07T05:28:12;18.60;;;13.07;;
3407;SDS011;1717;50.240;8.406;2022-12-07T05:30:38;19.83;;;13.40;;
3407;SDS011;1717;50.240;8.406;2022-12-07T05:33:05;25.90;;;14.27;;
3407;SDS011;1717;50.240;8.406;2022-12-07T05:35:32;20.60;;;13.07;;
3407;SDS011;1717;50.240;8.406;2022-12-07T05:38:00;19.53;;;12.73;;
3407;SDS011;1717;50.240;8.406;2022-12-07T05:40:26;20.80;;;13.00;;
3407;SDS011;1717;50.240;8.406;2022-12-07T05:42:53;22.20;;;14.00;;
3407;SDS011;1717;50.240;8.406;2022-12-07T05:45:20;24.50;;;13.27;;
3407;SDS011;1717;50.240;8.406;2022-12-07T05:47:47;21.23;;;13.47;;
3407;SDS011;1717;50.240;8.406;2022-12-07T05:50:14;25.70;;;15.13;;
3407;SDS011;1717;50.240;8.406;2022-12-07T05:52:41;23.17;;;15.70;;
3407;SDS011;1717;50.240;8.406;2022-12-07T05:55:08;20.60;;;13.37;;
3407;SDS011;1717;50.240;8.406;2022-12-07T05:57:35;23.50;;;14.50;;
3407;SDS011;1717;50.240;8.406;2022-12-07T06:00:02;24.23;;;15.30;;
3407;SDS011;1717;50.240;8.406;2022-12-07T06:02:30;25.47;;;15.17;;
3407;SDS011;1717;50.240;8.406;2022-12-07T06:04:57;18.50;;;12.80;;
3407;SDS011;1717;50.240;8.406;2022-12-07T06:07:24;21.93;;;14.23;;
3407;SDS011;1717;50.240;8.406;2022-12-07T06:09:51;23.00;;;15.40;;
3407;SDS011;1717;50.240;8.406;2022-12-07T06:12:17;24.03;;;13.70;;
3407;SDS011;1717;50.240;8.406;2022-12-07T06:14:58;25.07;;;13.47;;
3407;SDS011;1717;50.240;8.406;2022-12-07T06:17:25;19.60;;;12.30;;
3407;SDS011;1717;50.240;8.406;2022-12-07T06:19:54;19.17;;;13.07;;
3407;SDS011;1717;50.240;8.406;2022-12-07T06:22:20;19.57;;;13.60;;
3407;SDS011;1717;50.240;8.406;2022-12-07T06:24:47;17.97;;;12.90;;
3407;SDS011;1717;50.240;8.406;2022-12-07T06:27:14;17.60;;;12.03;;
3407;SDS011;1717;50.240;8.406;2022-12-07T06:29:41;19.73;;;13.80;;
3407;SDS011;1717;50.240;8.406;2022-12-07T06:32:07;21.83;;;13.83;;
3407;SDS011;1717;50.240;8.406;2022-12-07T06:34:34;20.37;;;14.17;;
3407;SDS011;1717;50.240;8.406;2022-12-07T06:37:03;22.30;;;13.03;;
3407;SDS011;1717;50.240;8.406;2022-12-07T06:39:30;20.50;;;13.40;;
3407;SDS011;1717;50.240;8.406;2022-12-07T06:41:57;20.10;;;13.00;;
3407;SDS011;1717;50.240;8.406;2022-12-07T06:44:23;20.03;;;13.27;;
3407;SDS011;1717;50.240;8.406;2022-12-07T06:46:51;19.27;;;13.00;;
3407;SDS011;1717;50.240;8.406;2022-12-07T06:49:18;23.20;;;14.37;;
3407;SDS011;1717;50.240;8.406;2022-12-07T06:51:44;21.37;;;13.40;;
3407;SDS011;1717;50.240;8.406;2022-12-07T06:54:13;21.60;;;14.00;;
3407;SDS011;1717;50.240;8.406;2022-12-07T06:56:41;22.10;;;13.50;;
3407;SDS011;1717;50.240;8.406;2022-12-07T06:59:08;22.20;;;12.00;;
3407;SDS011;1717;50.240;8.406;2022-12-07T07:01:35;18.80;;;13.13;;
3407;SDS011;1717;50.240;8.406;2022-12-07T07:04:02;20.33;;;13.57;;
3407;SDS011;1717;50.240;8.406;2022-12-07T07:06:29;21.23;;;13.07;;
3407;SDS011;1717;50.240;8.406;2022-12-07T07:08:56;19.37;;;12.90;;
3407;SDS011;1717;50.240;8.406;2022-12-07T07:11:24;18.33;;;11.73;;
3407;SDS011;1717;50.240;8.406;2022-12-07T07:13:51;21.13;;;12.97;;
3407;SDS011;1717;50.240;8.406;2022-12-07T07:16:18;20.10;;;13.03;;
3407;SDS011;1717;50.240;8.406;2022-12-07T07:18:45;16.00;;;11.60;;
3407;SDS011;1717;50.240;8.406;2022-12-07T07:21:12;19.33;;;13.27;;
3407;SDS011;1717;50.240;8.406;2022-12-07T07:23:39;16.63;;;11.93;;
3407;SDS011;1717;50.240;8.406;2022-12-07T07:26:05;17.67;;;11.93;;
3407;SDS011;1717;50.240;8.406;2022-12-07T07:28:34;17.43;;;12.23;;
3407;SDS011;1717;50.240;8.406;2022-12-07T07:31:01;16.13;;;11.37;;
3407;SDS011;1717;50.240;8.406;2022-12-07T07:33:27;16.13;;;10.93;;
3407;SDS011;1717;50.240;8.406;2022-12-07T07:35:54;15.87;;;10.90;;
3407;SDS011;1717;50.240;8.406;2022-12-07T07:38:21;15.07;;;11.70;;
3407;SDS011;1717;50.240;8.406;2022-12-07T07:40:48;14.90;;;10.70;;
3407;SDS011;1717;50.240;8.406;2022-12-07T07:43:15;22.73;;;14.00;;
3407;SDS011;1717;50.240;8.406;2022-12-07T07:45:43;19.90;;;13.03;;
3407;SDS011;1717;50.240;8.406;2022-12-07T07:48:10;21.03;;;11.60;;
3407;SDS011;1717;50.240;8.406;2022-12-07T07:50:37;16.10;;;11.37;;
3407;SDS011;1717;50.240;8.406;2022-12-07T07:53:04;15.27;;;10.80;;
3407;SDS011;1717;50.240;8.406;2022-12-07T07:55:31;17.07;;;10.50;;
3407;SDS011;1717;50.240;8.406;2022-12-07T07:57:57;17.53;;;12.30;;
3407;SDS011;1717;50.240;8.406;2022-12-07T08:00:24;18.60;;;10.70;;
3407;SDS011;1717;50.240;8.406;2022-12-07T08:02:52;19.17;;;11.60;;
3407;SDS011;1717;50.240;8.406;2022-12-07T08:05:19;16.37;;;10.20;;
3407;SDS011;1717;50.240;8.406;2022-12-07T08:07:46;15.40;;;10.90;;
3407;SDS011;1717;50.240;8.406;2022-12-07T08:10:13;16.83;;;10.63;;
3407;SDS011;1717;50.240;8.406;2022-12-07T08:12:40;15.43;;;10.27;;
3407;SDS011;1717;50.240;8.406;2022-12-07T08:15:22;20.10;;;12.67;;
3407;SDS011;1717;50.240;8.406;2022-12-07T08:17:49;13.73;;;9.53;;
3407;SDS011;1717;50.240;8.406;2022-12-07T08:20:17;16.97;;;11.60;;
3407;SDS011;1717;50.240;8.406;2022-12-07T08:22:44;17.67;;;10.50;;
3407;SDS011;1717;50.240;8.406;2022-12-07T08:25:11;17.33;;;10.37;;
3407;SDS011;1717;50.240;8.406;2022-12-07T08:27:38;18.37;;;11.83;;
3407;SDS011;1717;50.240;8.406;2022-12-07T08:30:05;14.53;;;10.00;;
3407;SDS011;1717;50.240;8.406;2022-12-07T08:32:33;16.27;;;10.37;;
3407;SDS011;1717;50.240;8.406;2022-12-07T08:35:00;19.00;;;10.97;;
3407;SDS011;1717;50.240;8.406;2022-12-07T08:37:29;12.30;;;9.20;;
3407;SDS011;1717;50.240;8.406;2022-12-07T08:39:55;16.53;;;10.20;;
3407;SDS011;1717;50.240;8.406;2022-12-07T08:42:22;15.67;;;10.13;;
3407;SDS011;1717;50.240;8.406;2022-12-07T08:44:54;14.37;;;10.00;;
3407;SDS011;1717;50.240;8.406;2022-12-07T08:47:21;16.03;;;11.10;;
3407;SDS011;1717;50.240;8.406;2022-12-07T08:49:49;13.70;;;10.60;;
3407;SDS011;1717;50.240;8.406;2022-12-07T08:52:17;13.63;;;10.30;;
3407;SDS011;1717;50.240;8.406;2022-12-07T08:54:45;16.37;;;10.63;;
3407;SDS011;1717;50.240;8.406;2022-12-07T08:57:13;13.20;;;9.27;;
3407;SDS011;1717;50.240;8.406;2022-12-07T08:59:39;16.53;;;10.87;;
3407;SDS011;1717;50.240;8.406;2022-12-07T09:02:06;16.03;;;10.30;;
3407;SDS011;1717;50.240;8.406;2022-12-07T09:04:33;15.10;;;10.70;;
3407;SDS011;1717;50.240;8.406;2022-12-07T09:07:00;14.60;;;9.70;;
3407;SDS011;1717;50.240;8.406;2022-12-07T09:09:27;19.07;;;11.97;;
3407;SDS011;1717;50.240;8.406;2022-12-07T09:11:55;15.00;;;9.87;;
3407;SDS011;1717;50.240;8.406;2022-12-07T09:14:22;15.53;;;10.57;;
3407;SDS011;1717;50.240;8.406;2022-12-07T09:16:49;12.33;;;9.20;;
3407;SDS011;1717;50.240;8.406;2022-12-07T09:19:16;15.07;;;9.57;;
3407;SDS011;1717;50.240;8.406;2022-12-07T09:21:42;15.20;;;11.70;;
3407;SDS011;1717;50.240;8.406;2022-12-07T09:24:09;14.80;;;10.40;;
3407;SDS011;1717;50.240;8.406;2022-12-07T09:26:37;13.90;;;10.20;;
3407;SDS011;1717;50.240;8.406;2022-12-07T09:29:06;17.40;;;11.17;;
3407;SDS011;1717;50.240;8.406;2022-12-07T09:31:35;15.70;;;10.03;;
3407;SDS011;1717;50.240;8.406;2022-12-07T09:34:03;18.03;;;11.23;;
3407;SDS011;1717;50.240;8.406;2022-12-07T09:36:31;11.87;;;9.53;;
3407;SDS011;1717;50.240;8.406;2022-12-07T09:38:57;16.00;;;10.80;;
3407;SDS011;1717;50.240;8.406;2022-12-07T09:41:25;14.47;;;10.10;;
3407;SDS011;1717;50.240;8.406;2022-12-07T09:43:57;17.07;;;10.03;;
3407;SDS011;1717;50.240;8.406;2022-12-07T09:46:31;17.20;;;10.90;;
3407;SDS011;1717;50.240;8.406;2022-12-07T09:49:02;16.27;;;10.47;;
3407;SDS011;1717;50.240;8.406;2022-12-07T09:51:30;16.43;;;9.73;;
3407;SDS011;1717;50.240;8.406;2022-12-07T09:53:58;17.37;;;11.53;;
3407;SDS011;1717;50.240;8.406;2022-12-07T09:56:25;19.63;;;11.20;;
3407;SDS011;1717;50.240;8.406;2022-12-07T09:58:58;13.80;;;10.50;;
3407;SDS011;1717;50.240;8.406;2022-12-07T10:01:27;14.70;;;10.23;;
3407;SDS011;1717;50.240;8.406;2022-12-07T10:04:01;17.30;;;11.43;;
3407;SDS011;1717;50.240;8.406;2022-12-07T10:06:35;15.57;;;11.10;;
3407;SDS011;1717;50.240;8.406;2022-12-07T10:09:02;13.80;;;9.30;;
3407;SDS011;1717;50.240;8.406;2022-12-07T10:11:34;13.13;;;8.90;;
3407;SDS011;1717;50.240;8.406;2022-12-07T10:14:10;13.97;;;9.77;;
3407;SDS011;1717;50.240;8.406;2022-12-07T10:16:39;17.43;;;9.80;;
3407;SDS011;1717;50.240;8.406;2022-12-07T10:19:19;14.20;;;9.20;;
3407;SDS011;1717;50.240;8.406;2022-12-07T10:21:59;12.63;;;8.73;;
3407;SDS011;1717;50.240;8.406;2022-12-07T10:24:36;13.70;;;8.90;;
3407;SDS011;1717;50.240;8.406;2022-12-07T10:27:10;14.97;;;8.93;;
3407;SDS011;1717;50.240;8.406;2022-12-07T10:29:46;16.23;;;10.80;;
3407;SDS011;1717;50.240;8.406;2022-12-07T10:32:27;16.87;;;9.60;;
3407;SDS011;1717;50.240;8.406;2022-12-07T10:35:15;12.03;;;9.00;;
3407;SDS011;1717;50.240;8.406;2022-12-07T10:37:45;14.53;;;8.77;;
3407;SDS011;1717;50.240;8.406;2022-12-07T10:40:24;18.40;;;8.07;;
3407;SDS011;1717;50.240;8.406;2022-12-07T10:43:03;14.70;;;8.93;;
3407;SDS011;1717;50.240;8.406;2022-12-07T10:45:32;12.00;;;8.80;;
3407;SDS011;1717;50.240;8.406;2022-12-07T10:48:02;12.77;;;8.33;;
3407;SDS011;1717;50.240;8.406;2022-12-07T10:50:50;15.47;;;9.30;;
3407;SDS011;1717;50.240;8.406;2022-12-07T10:53:27;14.43;;;8.97;;
3407;SDS011;1717;50.240;8.406;2022-12-07T10:56:08;11.13;;;8.17;;
3407;SDS011;1717;50.240;8.406;2022-12-07T10:58:55;15.80;;;8.30;;
3407;SDS011;1717;50.240;8.406;2022-12-07T11:01:31;10.00;;;7.43;;
3407;SDS011;1717;50.240;8.406;2022-12-07T11:04:14;12.70;;;8.77;;
3407;SDS011;1717;50.240;8.406;2022-12-07T11:06:53;12.60;;;9.83;;
3407;SDS011;1717;50.240;8.406;2022-12-07T11:12:29;15.63;;;9.70;;
3407;SDS011;1717;50.240;8.406;2022-12-07T11:15:04;11.87;;;8.67;;
3407;SDS011;1717;50.240;8.406;2022-12-07T11:17:42;11.50;;;8.40;;
3407;SDS011;1717;50.240;8.406;2022-12-07T11:20:22;11.90;;;8.43;;
3407;SDS011;1717;50.240;8.406;2022-12-07T11:23:03;13.10;;;8.40;;
3407;SDS011;1717;50.240;8.406;2022-12-07T11:25:40;13.57;;;9.23;;
3407;SDS011;1717;50.240;8.406;2022-12-07T11:28:16;11.37;;;8.47;;
3407;SDS011;1717;50.240;8.406;2022-12-07T11:30:52;13.10;;;9.40;;
3407;SDS011;1717;50.240;8.406;2022-12-07T11:33:29;12.47;;;8.50;;
3407;SDS011;1717;50.240;8.406;2022-12-07T11:36:04;11.17;;;8.87;;
3407;SDS011;1717;50.240;8.406;2022-12-07T11:38:41;17.00;;;10.23;;
3407;SDS011;1717;50.240;8.406;2022-12-07T11:41:12;12.60;;;7.90;;
3407;SDS011;1717;50.240;8.406;2022-12-07T11:43:42;12.73;;;9.87;;
3407;SDS011;1717;50.240;8.406;2022-12-07T11:46:22;12.40;;;8.50;;
3407;SDS011;1717;50.240;8.406;2022-12-07T11:48:53;15.30;;;8.90;;
3407;SDS011;1717;50.240;8.406;2022-12-07T11:51:26;10.57;;;8.23;;
3407;SDS011;1717;50.240;8.406;2022-12-07T11:53:58;15.33;;;7.50;;
3407;SDS011;1717;50.240;8.406;2022-12-07T11:56:29;14.87;;;7.97;;
3407;SDS011;1717;50.240;8.406;2022-12-07T11:59:02;12.63;;;7.50;;
3407;SDS011;1717;50.240;8.406;2022-12-07T12:01:39;14.40;;;9.30;;
3407;SDS011;1717;50.240;8.406;2022-12-07T12:04:18;12.63;;;8.50;;
3407;SDS011;1717;50.240;8.406;2022-12-07T12:06:53;16.87;;;9.37;;
3407;SDS011;1717;50.240;8.406;2022-12-07T12:09:23;13.10;;;9.10;;
3407;SDS011;1717;50.240;8.406;2022-12-07T12:12:01;14.83;;;8.20;;
3407;SDS011;1717;50.240;8.406;2022-12-07T12:14:46;12.03;;;7.10;;
3407;SDS011;1717;50.240;8.406;2022-12-07T12:20:16;14.97;;;7.07;;
3407;SDS011;1717;50.240;8.406;2022-12-07T12:22:49;10.83;;;7.27;;
3407;SDS011;1717;50.240;8.406;2022-12-07T12:25:21;7.80;;;5.20;;
3407;SDS011;1717;50.240;8.406;2022-12-07T12:27:52;15.40;;;7.13;;
3407;SDS011;1717;50.240;8.406;2022-12-07T12:30:26;7.70;;;4.93;;
3407;SDS011;1717;50.240;8.406;2022-12-07T12:33:02;7.37;;;5.53;;
3407;SDS011;1717;50.240;8.406;2022-12-07T12:35:32;9.10;;;5.30;;
3407;SDS011;1717;50.240;8.406;2022-12-07T12:40:58;6.87;;;5.03;;
3407;SDS011;1717;50.240;8.406;2022-12-07T12:43:44;7.60;;;5.07;;
3407;SDS011;1717;50.240;8.406;2022-12-07T12:49:33;7.00;;;4.77;;
3407;SDS011;1717;50.240;8.406;2022-12-07T12:55:21;11.40;;;5.63;;
3407;SDS011;1717;50.240;8.406;2022-12-07T13:04:02;12.40;;;7.03;;
3407;SDS011;1717;50.240;8.406;2022-12-07T13:06:32;7.73;;;6.00;;
3407;SDS011;1717;50.240;8.406;2022-12-07T13:09:03;8.00;;;6.33;;
3407;SDS011;1717;50.240;8.406;2022-12-07T13:11:31;8.73;;;5.77;;
3407;SDS011;1717;50.240;8.406;2022-12-07T13:17:08;9.67;;;5.53;;
3407;SDS011;1717;50.240;8.406;2022-12-07T13:25:29;10.33;;;5.23;;
3407;SDS011;1717;50.240;8.406;2022-12-07T13:28:01;11.70;;;6.03;;
3407;SDS011;1717;50.240;8.406;2022-12-07T13:30:34;8.70;;;4.90;;
3407;SDS011;1717;50.240;8.406;2022-12-07T13:33:13;8.07;;;5.10;;
3407;SDS011;1717;50.240;8.406;2022-12-07T13:35:42;10.63;;;5.30;;
3407;SDS011;1717;50.240;8.406;2022-12-07T13:38:16;7.83;;;5.93;;
3407;SDS011;1717;50.240;8.406;2022-12-07T13:40:59;7.13;;;5.60;;
3407;SDS011;1717;50.240;8.406;2022-12-07T13:43:27;8.40;;;5.90;;
3407;SDS011;1717;50.240;8.406;2022-12-07T13:45:58;5.97;;;4.97;;
3407;SDS011;1717;50.240;8.406;2022-12-07T13:48:30;8.63;;;5.87;;
3407;SDS011;1717;50.240;8.406;2022-12-07T13:50:59;8.27;;;5.40;;
3407;SDS011;1717;50.240;8.406;2022-12-07T13:53:27;6.37;;;5.20;;
3407;SDS011;1717;50.240;8.406;2022-12-07T13:55:55;8.97;;;4.93;;
3407;SDS011;1717;50.240;8.406;2022-12-07T13:58:23;7.30;;;4.57;;
3407;SDS011;1717;50.240;8.406;2022-12-07T14:00:51;5.90;;;4.93;;
3407;SDS011;1717;50.240;8.406;2022-12-07T14:03:30;6.00;;;4.53;;
3407;SDS011;1717;50.240;8.406;2022-12-07T14:06:06;7.17;;;4.87;;
3407;SDS011;1717;50.240;8.406;2022-12-07T14:08:40;4.77;;;3.97;;
3407;SDS011;1717;50.240;8.406;2022-12-07T14:11:07;7.60;;;4.80;;
3407;SDS011;1717;50.240;8.406;2022-12-07T14:13:39;4.70;;;4.20;;
3407;SDS011;1717;50.240;8.406;2022-12-07T14:16:25;6.03;;;4.20;;
3407;SDS011;1717;50.240;8.406;2022-12-07T14:18:55;5.63;;;4.43;;
3407;SDS011;1717;50.240;8.406;2022-12-07T14:21:24;6.97;;;4.17;;
3407;SDS011;1717;50.240;8.406;2022-12-07T14:24:09;7.13;;;4.03;;
3407;SDS011;1717;50.240;8.406;2022-12-07T14:26:44;6.23;;;3.93;;
3407;SDS011;1717;50.240;8.406;2022-12-07T14:29:19;5.87;;;4.07;;
3407;SDS011;1717;50.240;8.406;2022-12-07T14:31:48;7.33;;;5.00;;
3407;SDS011;1717;50.240;8.406;2022-12-07T14:34:16;6.63;;;3.97;;
3407;SDS011;1717;50.240;8.406;2022-12-07T14:36:45;6.20;;;4.20;;
3407;SDS011;1717;50.240;8.406;2022-12-07T14:39:12;5.20;;;3.53;;
3407;SDS011;1717;50.240;8.406;2022-12-07T14:41:39;3.77;;;3.40;;
3407;SDS011;1717;50.240;8.406;2022-12-07T14:44:18;7.67;;;4.03;;
3407;SDS011;1717;50.240;8.406;2022-12-07T14:46:46;8.50;;;4.40;;
3407;SDS011;1717;50.240;8.406;2022-12-07T14:49:13;6.80;;;4.90;;
3407;SDS011;1717;50.240;8.406;2022-12-07T14:51:41;4.93;;;4.43;;
3407;SDS011;1717;50.240;8.406;2022-12-07T14:54:13;5.87;;;4.23;;
3407;SDS011;1717;50.240;8.406;2022-12-07T14:56:42;8.93;;;5.00;;
3407;SDS011;1717;50.240;8.406;2022-12-07T14:59:10;12.47;;;8.23;;
3407;SDS011;1717;50.240;8.406;2022-12-07T15:01:37;10.00;;;6.80;;
3407;SDS011;1717;50.240;8.406;2022-12-07T15:04:04;10.37;;;6.90;;
3407;SDS011;1717;50.240;8.406;2022-12-07T15:06:31;12.10;;;7.00;;
3407;SDS011;1717;50.240;8.406;2022-12-07T15:09:00;11.23;;;7.90;;
3407;SDS011;1717;50.240;8.406;2022-12-07T15:11:27;16.13;;;10.73;;
3407;SDS011;1717;50.240;8.406;2022-12-07T15:13:54;11.47;;;8.47;;
3407;SDS011;1717;50.240;8.406;2022-12-07T15:16:37;13.27;;;8.97;;
3407;SDS011;1717;50.240;8.406;2022-12-07T15:19:06;14.37;;;9.80;;
3407;SDS011;1717;50.240;8.406;2022-12-07T15:21:36;10.93;;;7.90;;
3407;SDS011;1717;50.240;8.406;2022-12-07T15:24:05;10.70;;;8.77;;
3407;SDS011;1717;50.240;8.406;2022-12-07T15:26:32;12.57;;;8.33;;
3407;SDS011;1717;50.240;8.406;2022-12-07T15:28:58;8.90;;;7.37;;
3407;SDS011;1717;50.240;8.406;2022-12-07T15:31:25;10.60;;;7.77;;
3407;SDS011;1717;50.240;8.406;2022-12-07T15:33:52;11.23;;;8.30;;
3407;SDS011;1717;50.240;8.406;2022-12-07T15:36:20;8.60;;;6.80;;
3407;SDS011;1717;50.240;8.406;2022-12-07T15:38:48;11.00;;;7.23;;
3407;SDS011;1717;50.240;8.406;2022-12-07T15:41:16;8.60;;;6.10;;
3407;SDS011;1717;50.240;8.406;2022-12-07T15:43:44;9.33;;;5.97;;